createdAt,value
2022-09-04T00:00:34.232Z,16.88
2022-09-04T00:03:19.565Z,16.85
2022-09-04T00:05:53.917Z,16.83
2022-09-04T00:08:40.473Z,16.80
2022-09-04T00:11:21.739Z,16.79
2022-09-04T00:13:58.360Z,16.77
2022-09-04T00:16:36.632Z,16.76
2022-09-04T00:19:15.041Z,16.73
2022-09-04T00:21:51.720Z,16.70
2022-09-04T00:24:26.112Z,16.68
2022-09-04T00:27:04.423Z,16.68
2022-09-04T00:29:43.720Z,16.67
2022-09-04T00:32:21.829Z,16.66
2022-09-04T00:35:06.760Z,16.64
2022-09-04T00:37:43.410Z,16.60
2022-09-04T00:40:21.944Z,16.59
2022-09-04T00:43:31.068Z,16.53
2022-09-04T00:46:31.508Z,16.48
2022-09-04T00:49:31.300Z,16.43
2022-09-04T00:52:12.524Z,16.39
2022-09-04T00:55:01.036Z,16.35
2022-09-04T00:58:02.153Z,16.31
2022-09-04T01:00:30.819Z,16.27
2022-09-04T01:03:48.453Z,16.23
2022-09-04T01:06:35.993Z,16.20
2022-09-04T01:09:32.314Z,16.16
2022-09-04T01:12:17.611Z,16.17
2022-09-04T01:14:55.938Z,16.20
2022-09-04T01:17:34.872Z,16.19
2022-09-04T01:20:15.663Z,16.19
2022-09-04T01:23:02.156Z,16.16
2022-09-04T01:25:56.808Z,16.14
2022-09-04T01:28:36.072Z,16.11
2022-09-04T01:31:23.786Z,16.10
2022-09-04T01:34:11.046Z,16.08
2022-09-04T01:36:50.630Z,16.07
2022-09-04T01:39:23.585Z,16.06
2022-09-04T01:42:04.231Z,16.05
2022-09-04T01:44:34.109Z,16.06
2022-09-04T01:47:15.182Z,16.09
2022-09-04T01:49:51.393Z,16.11
2022-09-04T01:52:42.872Z,16.13
2022-09-04T01:55:25.032Z,16.20
2022-09-04T01:58:16.014Z,16.24
2022-09-04T02:00:59.914Z,16.30
2022-09-04T02:03:39.515Z,16.34
2022-09-04T02:06:22.700Z,16.41
2022-09-04T02:09:25.637Z,16.45
2022-09-04T02:12:12.231Z,16.50
2022-09-04T02:14:57.098Z,16.54
2022-09-04T02:17:39.324Z,16.57
2022-09-04T02:20:22.673Z,16.57
2022-09-04T02:23:05.162Z,16.56
2022-09-04T02:25:42.344Z,16.55
2022-09-04T02:28:34.507Z,16.53
2022-09-04T02:31:17.909Z,16.55
2022-09-04T02:33:55.144Z,16.56
2022-09-04T02:36:31.306Z,16.57
2022-09-04T02:39:12.973Z,16.59
2022-09-04T02:41:54.707Z,16.62
2022-09-04T02:44:38.494Z,16.64
2022-09-04T02:47:21.901Z,16.66
2022-09-04T02:50:03.449Z,16.69
2022-09-04T02:52:56.960Z,16.69
2022-09-04T02:55:46.669Z,16.69
2022-09-04T02:58:25.890Z,16.70
2022-09-04T03:01:04.203Z,16.73
2022-09-04T03:03:46.139Z,16.75
2022-09-04T03:06:23.794Z,16.79
2022-09-04T03:09:01.135Z,16.80
2022-09-04T03:11:38.746Z,16.83
2022-09-04T03:14:15.009Z,16.85
2022-09-04T03:16:50.509Z,16.88
2022-09-04T03:19:29.113Z,16.88
2022-09-04T03:22:05.320Z,16.91
2022-09-04T03:25:00.844Z,16.93
2022-09-04T03:27:31.652Z,16.92
2022-09-04T03:30:05.888Z,16.94
2022-09-04T03:32:46.255Z,16.96
2022-09-04T03:35:26.562Z,16.97
2022-09-04T03:38:13.535Z,16.97
2022-09-04T03:40:46.368Z,16.97
2022-09-04T03:43:36.981Z,16.96
2022-09-04T03:46:22.305Z,16.98
2022-09-04T03:49:09.883Z,16.96
2022-09-04T03:51:56.262Z,16.95
2022-09-04T03:54:45.336Z,16.94
2022-09-04T03:57:32.037Z,16.97
2022-09-04T04:00:09.387Z,16.99
2022-09-04T04:03:18.409Z,16.98
2022-09-04T04:06:01.316Z,16.97
2022-09-04T04:09:11.910Z,16.97
2022-09-04T04:12:05.171Z,16.97
2022-09-04T04:14:52.886Z,16.99
2022-09-04T04:17:48.346Z,17.00
2022-09-04T04:20:34.883Z,17.02
2022-09-04T04:23:56.848Z,17.02
2022-09-04T04:26:42.640Z,17.01
2022-09-04T04:29:39.690Z,16.99
2022-09-04T04:32:33.708Z,17.00
2022-09-04T04:35:21.375Z,17.02
2022-09-04T04:38:14.002Z,17.04
2022-09-04T04:41:06.267Z,17.04
2022-09-04T04:43:52.409Z,17.06
2022-09-04T04:46:35.196Z,17.08
2022-09-04T04:49:49.121Z,17.09
2022-09-04T04:52:30.265Z,17.10
2022-09-04T04:55:17.703Z,17.11
2022-09-04T04:58:02.467Z,17.13
2022-09-04T05:00:41.751Z,17.13
2022-09-04T05:03:20.599Z,17.14
2022-09-04T05:06:02.131Z,17.14
2022-09-04T05:08:47.815Z,17.12
2022-09-04T05:11:25.823Z,17.14
2022-09-04T05:14:08.002Z,17.14
2022-09-04T05:16:54.879Z,17.16
2022-09-04T05:19:33.625Z,17.19
2022-09-04T05:22:13.495Z,17.21
2022-09-04T05:24:56.413Z,17.24
2022-09-04T05:27:49.155Z,17.27
2022-09-04T05:30:24.272Z,17.30
2022-09-04T05:33:02.142Z,17.33
2022-09-04T05:35:43.345Z,17.36
2022-09-04T05:38:19.156Z,17.38
2022-09-04T05:41:05.295Z,17.38
2022-09-04T05:44:01.571Z,17.41
2022-09-04T05:46:51.812Z,17.46
2022-09-04T05:49:37.336Z,17.52
2022-09-04T05:52:50.607Z,17.57
2022-09-04T05:56:00.567Z,17.62
2022-09-04T05:58:49.579Z,17.68
2022-09-04T06:01:40.070Z,17.74
2022-09-04T06:04:42.061Z,17.79
2022-09-04T06:07:20.921Z,17.83
2022-09-04T06:10:04.507Z,17.88
2022-09-04T06:13:09.243Z,17.95
2022-09-04T06:15:52.770Z,18.08
2022-09-04T06:18:49.606Z,18.21
2022-09-04T06:21:49.630Z,18.36
2022-09-04T06:24:58.457Z,18.47
2022-09-04T06:27:48.584Z,18.51
2022-09-04T06:30:18.811Z,18.51
2022-09-04T06:33:36.112Z,18.47
2022-09-04T06:36:35.083Z,18.52
2022-09-04T06:39:23.801Z,18.62
2022-09-04T06:42:11.855Z,18.70
2022-09-04T06:44:59.740Z,18.78
2022-09-04T06:47:43.360Z,18.85
2022-09-04T06:50:27.296Z,18.93
2022-09-04T06:53:18.254Z,18.98
2022-09-04T06:56:04.385Z,19.05
2022-09-04T06:59:10.088Z,19.11
2022-09-04T07:01:52.300Z,19.22
2022-09-04T07:04:36.020Z,19.26
2022-09-04T07:07:19.052Z,19.24
2022-09-04T07:09:59.919Z,19.28
2022-09-04T07:13:08.356Z,19.34
2022-09-04T07:16:13.622Z,19.35
2022-09-04T07:19:08.691Z,19.34
2022-09-04T07:21:49.814Z,19.41
2022-09-04T07:24:49.248Z,19.51
2022-09-04T07:27:36.309Z,19.60
2022-09-04T07:30:09.260Z,19.63
2022-09-04T07:32:44.156Z,19.68
2022-09-04T07:35:22.069Z,19.71
2022-09-04T07:37:58.756Z,19.75
2022-09-04T07:40:33.797Z,19.83
2022-09-04T07:43:21.409Z,19.88
2022-09-04T07:46:01.037Z,19.87
2022-09-04T07:48:37.618Z,19.82
2022-09-04T07:51:11.683Z,19.76
2022-09-04T07:54:08.561Z,19.73
2022-09-04T07:56:59.372Z,19.74
2022-09-04T08:00:03.927Z,19.84
2022-09-04T08:03:07.039Z,19.98
2022-09-04T08:05:44.952Z,20.08
2022-09-04T08:08:59.387Z,20.12
2022-09-04T08:12:09.117Z,20.19
2022-09-04T08:14:55.350Z,20.29
2022-09-04T08:18:03.948Z,20.43
2022-09-04T08:20:44.099Z,20.49
2022-09-04T08:23:47.268Z,20.50
2022-09-04T08:26:27.224Z,20.51
2022-09-04T08:29:23.236Z,20.58
2022-09-04T08:32:10.851Z,20.74
2022-09-04T08:35:04.023Z,20.89
2022-09-04T08:37:49.437Z,21.15
2022-09-04T08:40:55.091Z,21.33
2022-09-04T08:43:36.004Z,21.74
2022-09-04T08:47:14.119Z,22.28
2022-09-04T08:50:38.083Z,22.97
2022-09-04T08:54:02.407Z,23.44
2022-09-04T08:56:43.104Z,23.59
2022-09-04T08:59:58.773Z,23.76
2022-09-04T09:03:19.426Z,23.94
2022-09-04T09:06:29.915Z,23.88
2022-09-04T09:09:49.948Z,23.95
2022-09-04T09:13:07.825Z,24.07
2022-09-04T09:16:22.149Z,24.34
2022-09-04T09:19:39.717Z,24.63
2022-09-04T09:22:37.598Z,25.14
2022-09-04T09:25:20.924Z,25.48
2022-09-04T09:28:43.880Z,25.96
2022-09-04T09:32:09.935Z,26.60
2022-09-04T09:35:26.737Z,27.25
2022-09-04T09:38:38.875Z,27.53
2022-09-04T09:41:55.411Z,28.07
2022-09-04T09:45:15.529Z,28.39
2022-09-04T09:48:47.861Z,28.53
2022-09-04T09:52:01.149Z,28.80
2022-09-04T09:55:08.008Z,29.22
2022-09-04T09:58:23.987Z,29.52
2022-09-04T10:01:05.346Z,30.03
2022-09-04T10:04:09.951Z,29.98
2022-09-04T10:07:28.418Z,30.03
2022-09-04T10:10:41.613Z,30.06
2022-09-04T10:13:53.319Z,30.37
2022-09-04T10:17:14.258Z,30.63
2022-09-04T10:20:28.780Z,30.55
2022-09-04T10:23:38.408Z,30.51
2022-09-04T10:26:50.775Z,30.81
2022-09-04T10:29:50.687Z,31.04
2022-09-04T10:33:19.980Z,31.25
2022-09-04T10:36:06.474Z,31.28
2022-09-04T10:39:03.381Z,31.17
2022-09-04T10:41:57.380Z,31.29
2022-09-04T10:44:54.667Z,31.45
2022-09-04T10:48:15.325Z,31.74
2022-09-04T10:51:35.293Z,31.94
2022-09-04T10:54:44.998Z,32.14
2022-09-04T10:57:42.876Z,32.37
2022-09-04T11:00:14.520Z,32.50
2022-09-04T11:03:40.160Z,32.37
2022-09-04T11:06:58.312Z,32.37
2022-09-04T11:09:58.860Z,32.54
2022-09-04T11:13:13.137Z,32.54
2022-09-04T11:16:11.236Z,32.64
2022-09-04T11:19:29.765Z,32.86
2022-09-04T11:22:42.967Z,32.92
2022-09-04T11:26:20.839Z,32.13
2022-09-04T11:29:19.197Z,32.18
2022-09-04T11:32:16.792Z,32.56
2022-09-04T11:35:36.187Z,32.72
2022-09-04T11:38:28.742Z,32.77
2022-09-04T11:41:50.824Z,32.96
2022-09-04T11:44:50.989Z,33.05
2022-09-04T11:47:49.129Z,33.27
2022-09-04T11:50:34.676Z,33.42
2022-09-04T11:53:37.278Z,33.78
2022-09-04T11:56:45.836Z,34.26
2022-09-04T11:59:51.771Z,34.21
2022-09-04T12:03:01.059Z,34.29
2022-09-04T12:05:51.198Z,34.41
2022-09-04T12:09:11.648Z,34.54
2022-09-04T12:12:12.769Z,34.43
2022-09-04T12:15:26.087Z,34.67
2022-09-04T12:18:52.035Z,34.93
2022-09-04T12:21:53.027Z,35.33
2022-09-04T12:25:06.304Z,35.77
2022-09-04T12:28:15.765Z,35.96
2022-09-04T12:31:06.622Z,35.79
2022-09-04T12:34:14.689Z,35.68
2022-09-04T12:37:23.760Z,35.59
2022-09-04T12:40:32.801Z,35.14
2022-09-04T12:43:16.477Z,35.16
2022-09-04T12:45:57.065Z,35.22
2022-09-04T12:48:35.647Z,35.48
2022-09-04T12:51:13.376Z,35.84
2022-09-04T12:54:24.912Z,36.01
2022-09-04T12:57:08.817Z,35.96
2022-09-04T12:59:55.676Z,35.65
2022-09-04T13:02:35.663Z,35.88
2022-09-04T13:05:25.540Z,36.22
2022-09-04T13:08:00.404Z,36.16
2022-09-04T13:10:37.502Z,36.32
2022-09-04T13:13:17.951Z,36.62
2022-09-04T13:16:00.379Z,36.59
2022-09-04T13:18:48.770Z,36.56
2022-09-04T13:21:35.832Z,36.68
2022-09-04T13:24:20.869Z,36.96
2022-09-04T13:27:16.571Z,37.09
2022-09-04T13:30:03.970Z,37.18
2022-09-04T13:33:13.711Z,36.96
2022-09-04T13:36:04.419Z,36.70
2022-09-04T13:39:21.527Z,36.58
2022-09-04T13:42:52.363Z,36.19
2022-09-04T13:45:26.419Z,36.04
2022-09-04T13:48:01.049Z,36.27
2022-09-04T13:50:36.721Z,36.24
2022-09-04T13:53:16.594Z,35.69
2022-09-04T13:55:51.799Z,35.05
2022-09-04T13:58:24.844Z,35.02
2022-09-04T14:01:00.326Z,35.23
2022-09-04T14:03:38.011Z,35.26
2022-09-04T14:06:11.094Z,35.42
2022-09-04T14:08:43.185Z,35.76
2022-09-04T14:11:50.685Z,35.69
2022-09-04T14:15:10.694Z,35.44
2022-09-04T14:17:49.555Z,35.29
2022-09-04T14:20:23.109Z,35.34
2022-09-04T14:23:05.746Z,35.46
2022-09-04T14:25:48.616Z,35.62
2022-09-04T14:28:24.440Z,35.72
2022-09-04T14:31:10.638Z,35.64
2022-09-04T14:33:55.860Z,35.42
2022-09-04T14:36:35.574Z,35.55
2022-09-04T14:39:21.186Z,35.49
2022-09-04T14:42:17.920Z,35.36
2022-09-04T14:45:16.264Z,35.03
2022-09-04T14:47:52.074Z,34.74
2022-09-04T14:50:23.432Z,34.51
2022-09-04T14:52:57.728Z,34.54
2022-09-04T14:55:29.952Z,34.71
2022-09-04T14:58:10.146Z,34.71
2022-09-04T15:01:01.060Z,34.84
2022-09-04T15:03:36.834Z,34.96
2022-09-04T15:06:16.135Z,34.88
2022-09-04T15:09:26.935Z,34.63
2022-09-04T15:12:20.890Z,34.48
2022-09-04T15:14:50.511Z,34.39
2022-09-04T15:17:28.198Z,34.29
2022-09-04T15:20:03.839Z,34.28
2022-09-04T15:22:40.496Z,34.20
2022-09-04T15:25:12.749Z,34.23
2022-09-04T15:27:51.984Z,34.20
2022-09-04T15:30:24.592Z,34.18
2022-09-04T15:33:07.047Z,34.03
2022-09-04T15:35:37.292Z,33.81
2022-09-04T15:38:11.223Z,33.63
2022-09-04T15:41:05.826Z,33.41
2022-09-04T15:43:41.167Z,33.17
2022-09-04T15:46:23.240Z,33.00
2022-09-04T15:48:58.731Z,32.87
2022-09-04T15:51:40.207Z,32.68
2022-09-04T15:54:27.004Z,32.54
2022-09-04T15:57:11.036Z,32.34
2022-09-04T15:59:52.166Z,32.18
2022-09-04T16:02:36.532Z,31.93
2022-09-04T16:05:19.499Z,31.73
2022-09-04T16:08:03.097Z,31.74
2022-09-04T16:10:47.640Z,31.88
2022-09-04T16:13:36.763Z,32.01
2022-09-04T16:16:14.783Z,32.07
2022-09-04T16:19:02.649Z,32.10
2022-09-04T16:21:45.317Z,32.22
2022-09-04T16:24:18.229Z,32.33
2022-09-04T16:26:52.071Z,32.26
2022-09-04T16:29:36.593Z,32.11
2022-09-04T16:32:12.190Z,31.82
2022-09-04T16:34:49.861Z,31.44
2022-09-04T16:37:25.916Z,31.08
2022-09-04T16:40:21.211Z,30.69
2022-09-04T16:42:52.043Z,30.38
2022-09-04T16:45:25.756Z,30.31
2022-09-04T16:48:00.418Z,30.31
2022-09-04T16:50:52.421Z,30.38
2022-09-04T16:53:33.360Z,30.44
2022-09-04T16:56:07.432Z,30.54
2022-09-04T16:58:52.652Z,30.63
2022-09-04T17:01:29.432Z,30.61
2022-09-04T17:04:30.748Z,30.59
2022-09-04T17:07:13.109Z,30.51
2022-09-04T17:10:01.613Z,30.38
2022-09-04T17:12:49.509Z,30.30
2022-09-04T17:15:29.636Z,30.16
2022-09-04T17:18:01.219Z,29.95
2022-09-04T17:22:18.816Z,29.68
2022-09-04T17:29:03.640Z,29.38
2022-09-04T17:29:12.868Z,29.12
2022-09-04T17:29:33.736Z,28.90
2022-09-04T17:33:36.883Z,28.66
2022-09-04T17:40:36.705Z,28.38
2022-09-04T17:40:46.823Z,28.08
2022-09-04T17:41:36.106Z,27.78
2022-09-04T17:44:31.798Z,27.55
2022-09-04T17:47:16.899Z,27.35
2022-09-04T17:49:50.247Z,27.18
2022-09-04T17:52:26.946Z,27.04
2022-09-04T17:55:03.160Z,26.88
2022-09-04T17:57:52.696Z,26.71
2022-09-04T18:00:25.058Z,26.61
2022-09-04T18:02:59.033Z,26.49
2022-09-04T18:05:36.389Z,26.36
2022-09-04T18:08:21.363Z,26.26
2022-09-04T18:10:56.045Z,26.15
2022-09-04T18:13:41.124Z,26.03
2022-09-04T18:16:26.799Z,25.86
2022-09-04T18:18:59.329Z,25.78
2022-09-04T18:21:37.529Z,25.68
2022-09-04T18:24:08.211Z,25.58
2022-09-04T18:26:42.105Z,25.48
2022-09-04T18:30:57.198Z,25.34
2022-09-04T18:37:07.617Z,25.23
2022-09-04T18:37:18.981Z,25.11
2022-09-04T18:38:53.712Z,25.01
2022-09-04T18:50:25.755Z,24.88
2022-09-04T18:50:31.761Z,24.66
2022-09-04T18:50:52.509Z,24.76
2022-09-04T18:51:19.574Z,24.54
2022-09-04T18:53:53.898Z,24.47
2022-09-04T18:56:29.337Z,24.39
2022-09-04T18:59:06.166Z,24.31
2022-09-04T19:01:45.530Z,24.23
2022-09-04T19:04:36.007Z,24.14
2022-09-04T19:07:10.375Z,24.09
2022-09-04T19:10:07.207Z,23.98
2022-09-04T19:12:47.690Z,23.92
2022-09-04T19:15:45.090Z,23.82
2022-09-04T19:18:27.376Z,23.74
2022-09-04T19:21:23.301Z,23.62
2022-09-04T19:23:58.903Z,23.57
2022-09-04T19:26:37.889Z,23.51
2022-09-04T19:29:19.384Z,23.44
2022-09-04T19:31:55.150Z,23.35
2022-09-04T19:34:36.552Z,23.27
2022-09-04T19:37:26.044Z,23.21
2022-09-04T19:45:56.907Z,23.11
2022-09-04T19:46:08.365Z,23.00
2022-09-04T19:46:25.985Z,22.91
2022-09-04T19:50:46.168Z,22.79
2022-09-04T19:53:32.174Z,22.70
2022-09-04T19:55:24.433Z,22.62
2022-09-04T19:58:06.649Z,22.53
2022-09-04T20:00:43.476Z,22.47
2022-09-04T20:03:30.293Z,22.39
2022-09-04T20:06:20.909Z,22.34
2022-09-04T20:09:01.716Z,22.25
2022-09-04T20:11:36.588Z,22.19
2022-09-04T20:14:16.152Z,22.10
2022-09-04T20:16:58.633Z,22.03
2022-09-04T20:19:37.377Z,21.98
2022-09-04T20:22:14.747Z,21.94
2022-09-04T20:25:01.496Z,21.88
2022-09-04T20:27:37.800Z,21.84
2022-09-04T20:30:12.681Z,21.80
2022-09-04T20:32:56.311Z,21.75
2022-09-04T20:35:35.363Z,21.69
2022-09-04T20:38:22.931Z,21.61
2022-09-04T20:40:59.566Z,21.55
2022-09-04T20:43:45.504Z,21.51
2022-09-04T20:51:15.517Z,21.46
2022-09-04T20:52:49.298Z,21.39
2022-09-04T20:52:58.421Z,21.34
2022-09-04T20:55:35.996Z,21.31
2022-09-04T21:03:10.523Z,21.26
2022-09-04T21:03:20.989Z,21.17
2022-09-04T21:04:41.879Z,21.06
2022-09-04T21:07:28.009Z,20.99
2022-09-04T21:10:10.243Z,20.94
2022-09-04T21:12:45.123Z,20.89
2022-09-04T21:15:29.356Z,20.83
2022-09-04T21:18:40.175Z,20.78
2022-09-04T21:21:37.424Z,20.73
2022-09-04T21:24:37.591Z,20.67
2022-09-04T21:27:35.872Z,20.62
2022-09-04T21:30:11.031Z,20.57
2022-09-04T21:33:27.571Z,20.52
2022-09-04T21:36:26.585Z,20.52
2022-09-04T21:39:45.225Z,20.48
2022-09-04T21:42:48.245Z,20.47
2022-09-04T21:45:53.655Z,20.45
2022-09-04T21:48:46.880Z,20.42
2022-09-04T21:51:52.201Z,20.38
2022-09-04T21:57:25.937Z,20.35
2022-09-04T22:02:38.283Z,20.28
2022-09-04T22:02:40.458Z,20.30
2022-09-04T22:04:56.719Z,20.25
2022-09-04T22:11:32.734Z,20.24
2022-09-04T22:13:38.522Z,20.21
2022-09-04T22:13:51.196Z,20.21
2022-09-04T22:16:53.115Z,20.20
2022-09-04T22:20:14.379Z,20.14
2022-09-04T22:23:18.527Z,20.06
2022-09-04T22:26:11.293Z,19.96
2022-09-04T22:29:13.015Z,19.87
2022-09-04T22:32:19.969Z,19.78
2022-09-04T22:35:42.187Z,19.72
2022-09-04T22:38:53.985Z,19.69
2022-09-04T22:42:05.371Z,19.64
2022-09-04T22:44:56.656Z,19.59
2022-09-04T22:47:55.857Z,19.55
2022-09-04T22:50:57.608Z,19.53
2022-09-04T22:54:03.368Z,19.53
2022-09-04T22:56:53.059Z,19.53
2022-09-04T23:00:13.795Z,19.52
2022-09-04T23:03:14.564Z,19.49
2022-09-04T23:11:00.386Z,19.40
2022-09-04T23:13:54.384Z,19.23
2022-09-04T23:14:02.933Z,19.31
2022-09-04T23:16:41.598Z,19.15
2022-09-04T23:23:48.898Z,19.10
2022-09-04T23:26:47.560Z,18.99
2022-09-04T23:26:49.221Z,19.05
2022-09-04T23:29:34.673Z,18.93
2022-09-04T23:32:47.939Z,18.91
2022-09-04T23:35:32.129Z,18.88
2022-09-04T23:38:42.066Z,18.87
2022-09-04T23:41:26.261Z,18.86
2022-09-04T23:44:39.795Z,18.83
2022-09-04T23:47:54.188Z,18.83
2022-09-04T23:50:37.724Z,18.84
2022-09-04T23:53:22.741Z,18.83
2022-09-04T23:56:07.207Z,18.80
2022-09-04T23:59:11.872Z,18.77
